Hovedside
METAR-TAF:

METAR-TAF

Lufthavner :

Nevis, Antigua og Barbuda

breddegrad: 17-12N, lengdegrad: 062-35W, høyde over havet: 17 m

Gjeldene værobservasjon

Denne rapporten ble laget for 42 minutter siden, klokken 14:00 UTC
Vind 13 kt fra Øst
Temperatur 31°C
Luftfuktighet 79%
Trykk 1017 hPa
Sikt 10 km eller mer
Få skyer i en høyde av 1700 ft, Tårnskyer (cumulus).
byger på avstand,

METAR: TKPN 191400Z 08013KT 9999 VCSH FEW017TCU 31/27 Q1017

Tid: 10:42 (14:42 UTC)

Varsel

Denne rapporten ble laget for 3 timer og 42 minutter siden, klokken 11:00 UTC
Varsel gyldig fra 19. klokken 12 UTC til 20. klokken 12 UTC
Vind 9 kt fra Øst-sørøst
Sikt 10 km eller mer
Spredte skyer i en høyde av 2200 ft

TAF: TKPN 191100Z 1912/2012 11009KT 9999 SCT022

Værobservasjoner og værvarsel for over 4000 flyplasser (METAR- og TAF-rapporter).

Tilgjengelige stasjoner er representert av de røde og gule prikkene på kartet.

Hold musepekeren over prikken for å se navnet på stasjonen.

Klikk så for å se værobservasjoner og -varsler.

For å forandre kartet kan du klikke på den grønne knappen med svart kryss for å zoome inn, på den grønne knappen med strek for å zoome ut, eller på de grønne pilene for å se tilstøtende kart.


METAR-TAF: